Lake Park, FL (33403)

6:55 PM EST on February 06, 2016 (GMT -0500)
Rybovich Boat Company | | Change Station
CLOSE
Current Station
Personal Weather Station
Location: West Palm Beach, FL
Elevation: 10 ft
Nearby Weather Stations

Elev 10 ft 26.75 °N, 80.05 °W | Updated 3 seconds ago

Overcast
Overcast
73.3 °F
Feels Like 74 °F
N
4.2
Wind Variable Wind from ESE
Gusts 10.0 mph

Today
High -- | Low -- °F
--% Chance of Precip.
Yesterday
High -- | Low -- °F
Precip. -- in
Pressure 29.99 in
Visibility 10.0 miles
Clouds Scattered Clouds 2500 ft
Mostly Cloudy 7000 ft
Mostly Cloudy 12000 ft
Heat Index 74 °F
Dew Point 66 °F
Humidity 78%
Rainfall 0.00 in
Snow Depth Not available.
7:03 AM 6:06 PM
Waning Crescent, 3% visible
METAR KPBI 062353Z 13009KT 10SM -RA SCT025 BKN070 BKN120 23/18 A2999 RMK AO2 RAB33 SLP155 P0000 60000 T02280183 10256 20228 58012 $
Pressure 29.99 in
Visibility 10.0 miles
Clouds Scattered Clouds 2500 ft
Mostly Cloudy 7000 ft
Mostly Cloudy 12000 ft
Heat Index 74 °F
Dew Point 66 °F
Humidity 78%
Rainfall 0.00 in
Snow Depth Not available.
7:03 AM 6:06 PM
Waning Crescent, 3% visible
METAR KPBI 062353Z 13009KT 10SM -RA SCT025 BKN070 BKN120 23/18 A2999 RMK AO2 RAB33 SLP155 P0000 60000 T02280183 10256 20228 58012 $

10-Day Weather Forecast

Almanac

Astronomy

Feb. 06, 2016 Rise Set
Actual Time
Civil Twilight
Nautical Twilight
Astronomical Twilight
Moon
Length of Visible Light
Length of Day
Tomorrow will be .
, % of the Moon is Illuminated

Today's Extremes

State Highs State Lows

Community

WunderPhotos

Upload Photos

1,891,098 photos uploaded!

WunderBlog® & News

Nearby

Air Quality

  Air Quality AQ Index Pollutant
Not available.

Snow Depth

Station Depth Elevation

Earthquake Activity

City Distance Mag. Time & Date
Minimum magnitude displayed is 2.5.

Coastal Water Temperatures

Place Temperature

Stations

Nearby Weather Stations

Station Location Temp. Windchill Dew Point Humidity Wind Precip. Elev Updated Type
                   

Watches & Warnings

There are currently no watches in effect.